sensor_id;sensor_type;location;lat;lon;timestamp;P1;durP1;ratioP1;P2;durP2;ratioP2
7843;SDS011;3967;48.702;9.326;2023-11-21T00:02:23;8.23;;;3.30;;
7843;SDS011;3967;48.702;9.326;2023-11-21T00:04:50;8.73;;;3.67;;
7843;SDS011;3967;48.702;9.326;2023-11-21T00:07:18;6.80;;;3.33;;
7843;SDS011;3967;48.702;9.326;2023-11-21T00:09:45;7.97;;;3.00;;
7843;SDS011;3967;48.702;9.326;2023-11-21T00:12:11;6.80;;;3.80;;
7843;SDS011;3967;48.702;9.326;2023-11-21T00:14:40;6.57;;;3.60;;
7843;SDS011;3967;48.702;9.326;2023-11-21T00:17:06;5.03;;;2.93;;
7843;SDS011;3967;48.702;9.326;2023-11-21T00:19:33;5.87;;;3.77;;
7843;SDS011;3967;48.702;9.326;2023-11-21T00:22:01;8.07;;;3.37;;
7843;SDS011;3967;48.702;9.326;2023-11-21T00:24:27;7.47;;;3.47;;
7843;SDS011;3967;48.702;9.326;2023-11-21T00:26:54;6.53;;;3.30;;
7843;SDS011;3967;48.702;9.326;2023-11-21T00:29:21;7.60;;;3.03;;
7843;SDS011;3967;48.702;9.326;2023-11-21T00:31:48;4.50;;;2.60;;
7843;SDS011;3967;48.702;9.326;2023-11-21T00:34:14;7.83;;;3.33;;
7843;SDS011;3967;48.702;9.326;2023-11-21T00:36:41;5.83;;;3.13;;
7843;SDS011;3967;48.702;9.326;2023-11-21T00:39:08;4.87;;;3.20;;
7843;SDS011;3967;48.702;9.326;2023-11-21T00:41:35;5.67;;;3.00;;
7843;SDS011;3967;48.702;9.326;2023-11-21T00:44:03;4.77;;;2.43;;
7843;SDS011;3967;48.702;9.326;2023-11-21T00:46:30;6.50;;;2.63;;
7843;SDS011;3967;48.702;9.326;2023-11-21T00:48:57;8.90;;;2.13;;
7843;SDS011;3967;48.702;9.326;2023-11-21T00:51:24;7.63;;;2.00;;
7843;SDS011;3967;48.702;9.326;2023-11-21T00:53:51;4.20;;;1.87;;
7843;SDS011;3967;48.702;9.326;2023-11-21T00:56:18;7.27;;;1.80;;
7843;SDS011;3967;48.702;9.326;2023-11-21T00:58:44;4.40;;;1.87;;
7843;SDS011;3967;48.702;9.326;2023-11-21T01:01:16;6.63;;;1.70;;
7843;SDS011;3967;48.702;9.326;2023-11-21T01:03:43;3.33;;;1.33;;
7843;SDS011;3967;48.702;9.326;2023-11-21T01:06:10;5.10;;;1.60;;
7843;SDS011;3967;48.702;9.326;2023-11-21T01:08:39;3.70;;;1.20;;
7843;SDS011;3967;48.702;9.326;2023-11-21T01:11:06;4.70;;;1.50;;
7843;SDS011;3967;48.702;9.326;2023-11-21T01:13:39;2.23;;;1.33;;
7843;SDS011;3967;48.702;9.326;2023-11-21T01:16:06;4.40;;;1.47;;
7843;SDS011;3967;48.702;9.326;2023-11-21T01:18:34;4.23;;;1.33;;
7843;SDS011;3967;48.702;9.326;2023-11-21T01:21:01;2.97;;;1.27;;
7843;SDS011;3967;48.702;9.326;2023-11-21T01:23:28;2.50;;;1.30;;
7843;SDS011;3967;48.702;9.326;2023-11-21T01:25:58;5.43;;;1.63;;
7843;SDS011;3967;48.702;9.326;2023-11-21T01:28:24;2.83;;;1.13;;
7843;SDS011;3967;48.702;9.326;2023-11-21T01:30:51;4.53;;;1.23;;
7843;SDS011;3967;48.702;9.326;2023-11-21T01:33:19;3.23;;;1.40;;
7843;SDS011;3967;48.702;9.326;2023-11-21T01:35:46;3.47;;;1.20;;
7843;SDS011;3967;48.702;9.326;2023-11-21T01:38:13;2.63;;;0.97;;
7843;SDS011;3967;48.702;9.326;2023-11-21T01:40:41;4.03;;;1.13;;
7843;SDS011;3967;48.702;9.326;2023-11-21T01:43:08;2.43;;;1.00;;
7843;SDS011;3967;48.702;9.326;2023-11-21T01:45:35;1.70;;;1.00;;
7843;SDS011;3967;48.702;9.326;2023-11-21T01:48:02;2.03;;;0.97;;
7843;SDS011;3967;48.702;9.326;2023-11-21T01:50:29;2.50;;;0.80;;
7843;SDS011;3967;48.702;9.326;2023-11-21T01:52:56;1.90;;;0.80;;
7843;SDS011;3967;48.702;9.326;2023-11-21T01:55:24;1.57;;;0.73;;
7843;SDS011;3967;48.702;9.326;2023-11-21T01:57:54;2.40;;;0.80;;
7843;SDS011;3967;48.702;9.326;2023-11-21T02:00:22;4.90;;;1.00;;
7843;SDS011;3967;48.702;9.326;2023-11-21T02:02:50;2.47;;;0.80;;
7843;SDS011;3967;48.702;9.326;2023-11-21T02:05:17;1.20;;;0.53;;
7843;SDS011;3967;48.702;9.326;2023-11-21T02:07:45;5.00;;;0.90;;
7843;SDS011;3967;48.702;9.326;2023-11-21T02:10:15;1.30;;;0.50;;
7843;SDS011;3967;48.702;9.326;2023-11-21T02:12:43;2.03;;;0.80;;
7843;SDS011;3967;48.702;9.326;2023-11-21T02:15:12;3.30;;;1.20;;
7843;SDS011;3967;48.702;9.326;2023-11-21T02:17:50;2.30;;;0.70;;
7843;SDS011;3967;48.702;9.326;2023-11-21T02:20:18;5.13;;;1.53;;
7843;SDS011;3967;48.702;9.326;2023-11-21T02:22:52;3.00;;;0.90;;
7843;SDS011;3967;48.702;9.326;2023-11-21T02:25:28;1.10;;;0.60;;
7843;SDS011;3967;48.702;9.326;2023-11-21T02:27:56;3.17;;;0.70;;
7843;SDS011;3967;48.702;9.326;2023-11-21T02:30:24;1.87;;;0.87;;
7843;SDS011;3967;48.702;9.326;2023-11-21T02:32:51;2.33;;;0.93;;
7843;SDS011;3967;48.702;9.326;2023-11-21T02:35:19;1.10;;;0.40;;
7843;SDS011;3967;48.702;9.326;2023-11-21T02:37:47;1.67;;;0.57;;
7843;SDS011;3967;48.702;9.326;2023-11-21T02:40:14;1.40;;;0.57;;
7843;SDS011;3967;48.702;9.326;2023-11-21T02:42:47;3.47;;;0.97;;
7843;SDS011;3967;48.702;9.326;2023-11-21T02:45:14;0.60;;;0.47;;
7843;SDS011;3967;48.702;9.326;2023-11-21T02:47:43;0.83;;;0.50;;
7843;SDS011;3967;48.702;9.326;2023-11-21T02:50:11;2.73;;;0.70;;
7843;SDS011;3967;48.702;9.326;2023-11-21T02:52:38;1.03;;;0.50;;
7843;SDS011;3967;48.702;9.326;2023-11-21T02:55:08;4.17;;;1.00;;
7843;SDS011;3967;48.702;9.326;2023-11-21T02:57:35;1.70;;;0.60;;
7843;SDS011;3967;48.702;9.326;2023-11-21T03:00:02;2.63;;;0.70;;
7843;SDS011;3967;48.702;9.326;2023-11-21T03:02:29;2.83;;;0.50;;
7843;SDS011;3967;48.702;9.326;2023-11-21T03:04:56;1.90;;;0.47;;
7843;SDS011;3967;48.702;9.326;2023-11-21T03:07:22;1.40;;;0.57;;
7843;SDS011;3967;48.702;9.326;2023-11-21T03:09:49;4.67;;;0.60;;
7843;SDS011;3967;48.702;9.326;2023-11-21T03:12:16;1.50;;;0.60;;
7843;SDS011;3967;48.702;9.326;2023-11-21T03:14:43;3.07;;;0.50;;
7843;SDS011;3967;48.702;9.326;2023-11-21T03:17:10;2.83;;;0.60;;
7843;SDS011;3967;48.702;9.326;2023-11-21T03:19:37;1.70;;;0.70;;
7843;SDS011;3967;48.702;9.326;2023-11-21T03:22:04;3.47;;;0.50;;
7843;SDS011;3967;48.702;9.326;2023-11-21T03:24:31;2.23;;;0.47;;
7843;SDS011;3967;48.702;9.326;2023-11-21T03:26:57;1.30;;;0.60;;
7843;SDS011;3967;48.702;9.326;2023-11-21T03:29:25;1.10;;;0.50;;
7843;SDS011;3967;48.702;9.326;2023-11-21T03:31:52;1.77;;;0.50;;
7843;SDS011;3967;48.702;9.326;2023-11-21T03:34:25;0.90;;;0.40;;
7843;SDS011;3967;48.702;9.326;2023-11-21T03:36:53;2.30;;;0.70;;
7843;SDS011;3967;48.702;9.326;2023-11-21T03:39:20;0.93;;;0.57;;
7843;SDS011;3967;48.702;9.326;2023-11-21T03:41:47;1.27;;;0.67;;
7843;SDS011;3967;48.702;9.326;2023-11-21T03:44:14;2.37;;;0.60;;
7843;SDS011;3967;48.702;9.326;2023-11-21T03:46:40;1.83;;;0.50;;
7843;SDS011;3967;48.702;9.326;2023-11-21T03:49:07;0.73;;;0.40;;
7843;SDS011;3967;48.702;9.326;2023-11-21T03:51:34;1.80;;;0.50;;
7843;SDS011;3967;48.702;9.326;2023-11-21T03:54:00;2.63;;;0.50;;
7843;SDS011;3967;48.702;9.326;2023-11-21T03:56:27;1.50;;;0.57;;
7843;SDS011;3967;48.702;9.326;2023-11-21T03:58:54;1.03;;;0.33;;
7843;SDS011;3967;48.702;9.326;2023-11-21T04:01:21;0.83;;;0.43;;
7843;SDS011;3967;48.702;9.326;2023-11-21T04:03:49;1.73;;;0.50;;
7843;SDS011;3967;48.702;9.326;2023-11-21T04:06:17;2.00;;;0.50;;
7843;SDS011;3967;48.702;9.326;2023-11-21T04:08:44;1.23;;;0.50;;
7843;SDS011;3967;48.702;9.326;2023-11-21T04:11:11;0.40;;;0.30;;
7843;SDS011;3967;48.702;9.326;2023-11-21T04:13:39;1.83;;;0.47;;
7843;SDS011;3967;48.702;9.326;2023-11-21T04:16:07;1.43;;;0.43;;
7843;SDS011;3967;48.702;9.326;2023-11-21T04:18:37;0.93;;;0.33;;
7843;SDS011;3967;48.702;9.326;2023-11-21T04:21:05;1.27;;;0.60;;
7843;SDS011;3967;48.702;9.326;2023-11-21T04:23:32;1.13;;;0.40;;
7843;SDS011;3967;48.702;9.326;2023-11-21T04:26:00;0.40;;;0.40;;
7843;SDS011;3967;48.702;9.326;2023-11-21T04:28:28;0.57;;;0.40;;
7843;SDS011;3967;48.702;9.326;2023-11-21T04:30:55;1.77;;;0.50;;
7843;SDS011;3967;48.702;9.326;2023-11-21T04:33:22;0.53;;;0.47;;
7843;SDS011;3967;48.702;9.326;2023-11-21T04:35:49;0.77;;;0.50;;
7843;SDS011;3967;48.702;9.326;2023-11-21T04:38:16;2.40;;;0.60;;
7843;SDS011;3967;48.702;9.326;2023-11-21T04:40:42;1.10;;;0.50;;
7843;SDS011;3967;48.702;9.326;2023-11-21T04:43:09;0.30;;;0.30;;
7843;SDS011;3967;48.702;9.326;2023-11-21T04:45:39;1.60;;;0.40;;
7843;SDS011;3967;48.702;9.326;2023-11-21T04:48:07;1.13;;;0.40;;
7843;SDS011;3967;48.702;9.326;2023-11-21T04:50:34;1.63;;;0.40;;
7843;SDS011;3967;48.702;9.326;2023-11-21T04:53:01;1.73;;;0.40;;
7843;SDS011;3967;48.702;9.326;2023-11-21T04:55:28;2.20;;;0.60;;
7843;SDS011;3967;48.702;9.326;2023-11-21T04:57:55;2.23;;;0.47;;
7843;SDS011;3967;48.702;9.326;2023-11-21T05:00:22;2.33;;;0.60;;
7843;SDS011;3967;48.702;9.326;2023-11-21T05:02:48;0.67;;;0.40;;
7843;SDS011;3967;48.702;9.326;2023-11-21T05:05:16;0.63;;;0.30;;
7843;SDS011;3967;48.702;9.326;2023-11-21T05:07:43;1.37;;;0.50;;
7843;SDS011;3967;48.702;9.326;2023-11-21T05:10:10;0.30;;;0.30;;
7843;SDS011;3967;48.702;9.326;2023-11-21T05:12:39;1.07;;;0.43;;
7843;SDS011;3967;48.702;9.326;2023-11-21T05:15:06;0.47;;;0.33;;
7843;SDS011;3967;48.702;9.326;2023-11-21T05:17:37;1.90;;;0.73;;
7843;SDS011;3967;48.702;9.326;2023-11-21T05:20:11;1.03;;;0.40;;
7843;SDS011;3967;48.702;9.326;2023-11-21T05:22:42;1.53;;;0.37;;
7843;SDS011;3967;48.702;9.326;2023-11-21T05:25:09;1.53;;;0.40;;
7843;SDS011;3967;48.702;9.326;2023-11-21T05:27:37;1.03;;;0.57;;
7843;SDS011;3967;48.702;9.326;2023-11-21T05:30:05;3.00;;;0.40;;
7843;SDS011;3967;48.702;9.326;2023-11-21T05:32:33;1.00;;;0.60;;
7843;SDS011;3967;48.702;9.326;2023-11-21T05:35:00;1.77;;;0.63;;
7843;SDS011;3967;48.702;9.326;2023-11-21T05:37:27;2.40;;;0.50;;
7843;SDS011;3967;48.702;9.326;2023-11-21T05:39:54;1.10;;;0.37;;
7843;SDS011;3967;48.702;9.326;2023-11-21T05:42:24;2.67;;;0.80;;
7843;SDS011;3967;48.702;9.326;2023-11-21T05:44:50;3.00;;;0.87;;
7843;SDS011;3967;48.702;9.326;2023-11-21T05:47:17;1.70;;;0.90;;
7843;SDS011;3967;48.702;9.326;2023-11-21T05:49:44;1.43;;;0.87;;
7843;SDS011;3967;48.702;9.326;2023-11-21T05:52:16;0.50;;;0.47;;
7843;SDS011;3967;48.702;9.326;2023-11-21T05:54:44;3.00;;;2.00;;
7843;SDS011;3967;48.702;9.326;2023-11-21T05:57:10;1.87;;;1.37;;
7843;SDS011;3967;48.702;9.326;2023-11-21T05:59:37;2.67;;;1.10;;
7843;SDS011;3967;48.702;9.326;2023-11-21T06:02:04;2.37;;;0.40;;
7843;SDS011;3967;48.702;9.326;2023-11-21T06:04:31;0.60;;;0.50;;
7843;SDS011;3967;48.702;9.326;2023-11-21T06:06:58;2.23;;;0.57;;
7843;SDS011;3967;48.702;9.326;2023-11-21T06:09:26;1.57;;;0.70;;
7843;SDS011;3967;48.702;9.326;2023-11-21T06:11:53;1.17;;;0.60;;
7843;SDS011;3967;48.702;9.326;2023-11-21T06:14:20;1.70;;;0.60;;
7843;SDS011;3967;48.702;9.326;2023-11-21T06:16:48;0.50;;;0.50;;
7843;SDS011;3967;48.702;9.326;2023-11-21T06:19:17;0.70;;;0.47;;
7843;SDS011;3967;48.702;9.326;2023-11-21T06:21:47;0.60;;;0.40;;
7843;SDS011;3967;48.702;9.326;2023-11-21T06:24:14;0.70;;;0.50;;
7843;SDS011;3967;48.702;9.326;2023-11-21T06:26:41;2.33;;;0.60;;
7843;SDS011;3967;48.702;9.326;2023-11-21T06:29:08;0.53;;;0.20;;
7843;SDS011;3967;48.702;9.326;2023-11-21T06:31:35;1.40;;;0.70;;
7843;SDS011;3967;48.702;9.326;2023-11-21T06:34:02;1.47;;;0.53;;
7843;SDS011;3967;48.702;9.326;2023-11-21T06:36:29;0.60;;;0.60;;
7843;SDS011;3967;48.702;9.326;2023-11-21T06:38:56;0.50;;;0.40;;
7843;SDS011;3967;48.702;9.326;2023-11-21T06:41:23;2.93;;;0.90;;
7843;SDS011;3967;48.702;9.326;2023-11-21T06:43:49;0.40;;;0.40;;
7843;SDS011;3967;48.702;9.326;2023-11-21T06:46:16;1.17;;;0.30;;
7843;SDS011;3967;48.702;9.326;2023-11-21T06:48:43;1.63;;;0.70;;
7843;SDS011;3967;48.702;9.326;2023-11-21T06:51:10;1.03;;;0.40;;
7843;SDS011;3967;48.702;9.326;2023-11-21T06:53:37;0.67;;;0.40;;
7843;SDS011;3967;48.702;9.326;2023-11-21T06:56:05;1.53;;;0.60;;
7843;SDS011;3967;48.702;9.326;2023-11-21T06:58:41;1.67;;;0.60;;
7843;SDS011;3967;48.702;9.326;2023-11-21T07:01:08;0.93;;;0.30;;
7843;SDS011;3967;48.702;9.326;2023-11-21T07:03:35;2.73;;;0.50;;
7843;SDS011;3967;48.702;9.326;2023-11-21T07:06:03;0.57;;;0.40;;
7843;SDS011;3967;48.702;9.326;2023-11-21T07:08:31;1.13;;;0.40;;
7843;SDS011;3967;48.702;9.326;2023-11-21T07:10:57;1.00;;;0.40;;
7843;SDS011;3967;48.702;9.326;2023-11-21T07:13:24;2.10;;;0.90;;
7843;SDS011;3967;48.702;9.326;2023-11-21T07:15:52;1.67;;;0.80;;
7843;SDS011;3967;48.702;9.326;2023-11-21T07:18:18;3.27;;;2.30;;
7843;SDS011;3967;48.702;9.326;2023-11-21T07:20:45;6.17;;;2.73;;
7843;SDS011;3967;48.702;9.326;2023-11-21T07:23:12;5.63;;;3.20;;
7843;SDS011;3967;48.702;9.326;2023-11-21T07:25:39;4.30;;;2.40;;
7843;SDS011;3967;48.702;9.326;2023-11-21T07:28:07;4.33;;;2.40;;
7843;SDS011;3967;48.702;9.326;2023-11-21T07:30:35;5.73;;;3.23;;
7843;SDS011;3967;48.702;9.326;2023-11-21T07:33:01;5.20;;;2.83;;
7843;SDS011;3967;48.702;9.326;2023-11-21T07:35:28;4.77;;;2.30;;
7843;SDS011;3967;48.702;9.326;2023-11-21T07:37:55;1.53;;;1.43;;
7843;SDS011;3967;48.702;9.326;2023-11-21T07:40:22;1.17;;;1.07;;
7843;SDS011;3967;48.702;9.326;2023-11-21T07:42:49;1.13;;;1.03;;
7843;SDS011;3967;48.702;9.326;2023-11-21T07:45:17;1.20;;;1.10;;
7843;SDS011;3967;48.702;9.326;2023-11-21T07:47:43;1.67;;;1.30;;
7843;SDS011;3967;48.702;9.326;2023-11-21T07:50:10;2.20;;;1.70;;
7843;SDS011;3967;48.702;9.326;2023-11-21T07:52:37;1.90;;;1.53;;
7843;SDS011;3967;48.702;9.326;2023-11-21T07:55:04;2.23;;;1.83;;
7843;SDS011;3967;48.702;9.326;2023-11-21T07:57:31;1.20;;;1.10;;
7843;SDS011;3967;48.702;9.326;2023-11-21T07:59:58;1.90;;;1.20;;
7843;SDS011;3967;48.702;9.326;2023-11-21T08:02:26;0.87;;;0.87;;
7843;SDS011;3967;48.702;9.326;2023-11-21T08:04:54;1.30;;;0.80;;
7843;SDS011;3967;48.702;9.326;2023-11-21T08:07:23;1.33;;;0.90;;
7843;SDS011;3967;48.702;9.326;2023-11-21T08:09:50;0.83;;;0.77;;
7843;SDS011;3967;48.702;9.326;2023-11-21T08:12:17;3.13;;;0.87;;
7843;SDS011;3967;48.702;9.326;2023-11-21T08:14:44;0.83;;;0.80;;
7843;SDS011;3967;48.702;9.326;2023-11-21T08:17:11;1.57;;;1.07;;
7843;SDS011;3967;48.702;9.326;2023-11-21T08:19:40;0.73;;;0.73;;
7843;SDS011;3967;48.702;9.326;2023-11-21T08:22:07;1.43;;;0.90;;
7843;SDS011;3967;48.702;9.326;2023-11-21T08:24:34;1.63;;;0.80;;
7843;SDS011;3967;48.702;9.326;2023-11-21T08:27:01;1.60;;;0.73;;
7843;SDS011;3967;48.702;9.326;2023-11-21T08:29:27;1.07;;;0.90;;
7843;SDS011;3967;48.702;9.326;2023-11-21T08:31:54;2.10;;;0.80;;
7843;SDS011;3967;48.702;9.326;2023-11-21T08:34:22;3.63;;;0.80;;
7843;SDS011;3967;48.702;9.326;2023-11-21T08:36:49;1.30;;;0.70;;
7843;SDS011;3967;48.702;9.326;2023-11-21T08:39:17;3.07;;;0.73;;
7843;SDS011;3967;48.702;9.326;2023-11-21T08:41:45;2.00;;;0.70;;
7843;SDS011;3967;48.702;9.326;2023-11-21T08:44:12;2.37;;;1.03;;
7843;SDS011;3967;48.702;9.326;2023-11-21T08:46:38;0.90;;;0.90;;
7843;SDS011;3967;48.702;9.326;2023-11-21T08:49:07;2.53;;;0.90;;
7843;SDS011;3967;48.702;9.326;2023-11-21T08:51:34;1.47;;;0.80;;
7843;SDS011;3967;48.702;9.326;2023-11-21T08:54:01;2.03;;;0.63;;
7843;SDS011;3967;48.702;9.326;2023-11-21T08:56:30;1.37;;;0.50;;
7843;SDS011;3967;48.702;9.326;2023-11-21T08:58:57;1.07;;;0.60;;
7843;SDS011;3967;48.702;9.326;2023-11-21T09:01:24;1.93;;;0.80;;
7843;SDS011;3967;48.702;9.326;2023-11-21T09:03:51;2.87;;;0.80;;
7843;SDS011;3967;48.702;9.326;2023-11-21T09:06:17;2.13;;;0.93;;
7843;SDS011;3967;48.702;9.326;2023-11-21T09:08:45;0.70;;;0.67;;
7843;SDS011;3967;48.702;9.326;2023-11-21T09:11:12;1.57;;;1.00;;
7843;SDS011;3967;48.702;9.326;2023-11-21T09:13:38;1.53;;;0.90;;
7843;SDS011;3967;48.702;9.326;2023-11-21T09:16:05;0.80;;;0.80;;
7843;SDS011;3967;48.702;9.326;2023-11-21T09:18:32;2.90;;;0.90;;
7843;SDS011;3967;48.702;9.326;2023-11-21T09:20:59;1.30;;;1.20;;
7843;SDS011;3967;48.702;9.326;2023-11-21T09:23:26;1.03;;;0.93;;
7843;SDS011;3967;48.702;9.326;2023-11-21T09:25:53;2.03;;;1.10;;
7843;SDS011;3967;48.702;9.326;2023-11-21T09:28:23;3.03;;;1.40;;
7843;SDS011;3967;48.702;9.326;2023-11-21T09:30:49;2.10;;;1.20;;
7843;SDS011;3967;48.702;9.326;2023-11-21T09:33:16;1.90;;;1.70;;
7843;SDS011;3967;48.702;9.326;2023-11-21T09:35:43;1.10;;;1.03;;
7843;SDS011;3967;48.702;9.326;2023-11-21T09:38:10;2.97;;;1.90;;
7843;SDS011;3967;48.702;9.326;2023-11-21T09:40:37;7.40;;;1.90;;
7843;SDS011;3967;48.702;9.326;2023-11-21T09:43:09;1.57;;;1.47;;
7843;SDS011;3967;48.702;9.326;2023-11-21T09:45:47;3.73;;;1.80;;
7843;SDS011;3967;48.702;9.326;2023-11-21T09:48:20;2.23;;;1.90;;
7843;SDS011;3967;48.702;9.326;2023-11-21T09:50:48;1.63;;;1.50;;
7843;SDS011;3967;48.702;9.326;2023-11-21T09:53:20;1.60;;;1.40;;
7843;SDS011;3967;48.702;9.326;2023-11-21T09:55:50;1.23;;;1.13;;
7843;SDS011;3967;48.702;9.326;2023-11-21T09:58:19;1.07;;;0.97;;
7843;SDS011;3967;48.702;9.326;2023-11-21T10:00:48;1.37;;;1.27;;
7843;SDS011;3967;48.702;9.326;2023-11-21T10:03:18;1.30;;;1.20;;
7843;SDS011;3967;48.702;9.326;2023-11-21T10:05:45;1.60;;;0.90;;
7843;SDS011;3967;48.702;9.326;2023-11-21T10:08:16;1.30;;;1.10;;
7843;SDS011;3967;48.702;9.326;2023-11-21T10:10:46;1.10;;;0.87;;
7843;SDS011;3967;48.702;9.326;2023-11-21T10:13:18;1.13;;;0.93;;
7843;SDS011;3967;48.702;9.326;2023-11-21T10:15:50;2.40;;;0.67;;
7843;SDS011;3967;48.702;9.326;2023-11-21T10:18:19;2.27;;;0.90;;
7843;SDS011;3967;48.702;9.326;2023-11-21T10:20:46;3.67;;;0.80;;
7843;SDS011;3967;48.702;9.326;2023-11-21T10:23:19;1.33;;;1.00;;
7843;SDS011;3967;48.702;9.326;2023-11-21T10:25:48;4.07;;;0.90;;
7843;SDS011;3967;48.702;9.326;2023-11-21T10:28:17;0.90;;;0.60;;
7843;SDS011;3967;48.702;9.326;2023-11-21T10:30:44;2.20;;;0.90;;
7843;SDS011;3967;48.702;9.326;2023-11-21T10:33:10;1.73;;;0.80;;
7843;SDS011;3967;48.702;9.326;2023-11-21T10:35:47;1.23;;;0.47;;
7843;SDS011;3967;48.702;9.326;2023-11-21T10:38:17;1.97;;;0.80;;
7843;SDS011;3967;48.702;9.326;2023-11-21T10:40:46;0.90;;;0.83;;
7843;SDS011;3967;48.702;9.326;2023-11-21T10:43:13;1.23;;;0.50;;
7843;SDS011;3967;48.702;9.326;2023-11-21T10:45:44;0.40;;;0.40;;
7843;SDS011;3967;48.702;9.326;2023-11-21T10:48:12;0.70;;;0.50;;
7843;SDS011;3967;48.702;9.326;2023-11-21T10:50:47;1.43;;;0.43;;
7843;SDS011;3967;48.702;9.326;2023-11-21T10:53:14;0.50;;;0.50;;
7843;SDS011;3967;48.702;9.326;2023-11-21T10:55:42;1.07;;;0.60;;
7843;SDS011;3967;48.702;9.326;2023-11-21T10:58:11;1.50;;;0.73;;
7843;SDS011;3967;48.702;9.326;2023-11-21T11:00:40;2.13;;;0.70;;
7843;SDS011;3967;48.702;9.326;2023-11-21T11:03:07;0.67;;;0.67;;
7843;SDS011;3967;48.702;9.326;2023-11-21T11:05:42;0.63;;;0.40;;
7843;SDS011;3967;48.702;9.326;2023-11-21T11:08:17;1.10;;;0.60;;
7843;SDS011;3967;48.702;9.326;2023-11-21T11:10:52;0.97;;;0.60;;
7843;SDS011;3967;48.702;9.326;2023-11-21T11:13:19;1.50;;;0.60;;
7843;SDS011;3967;48.702;9.326;2023-11-21T11:15:47;0.53;;;0.53;;
7843;SDS011;3967;48.702;9.326;2023-11-21T11:18:15;2.30;;;0.97;;
7843;SDS011;3967;48.702;9.326;2023-11-21T11:20:42;0.97;;;0.60;;
7843;SDS011;3967;48.702;9.326;2023-11-21T11:34:59;0.80;;;0.80;;
7843;SDS011;3967;48.702;9.326;2023-11-21T11:37:36;0.63;;;0.63;;
7843;SDS011;3967;48.702;9.326;2023-11-21T11:40:05;1.10;;;1.00;;
7843;SDS011;3967;48.702;9.326;2023-11-21T11:42:33;1.67;;;1.17;;
7843;SDS011;3967;48.702;9.326;2023-11-21T11:44:59;3.87;;;2.10;;
7843;SDS011;3967;48.702;9.326;2023-11-21T11:47:30;6.93;;;4.17;;
7843;SDS011;3967;48.702;9.326;2023-11-21T11:52:40;2.20;;;1.77;;
7843;SDS011;3967;48.702;9.326;2023-11-21T11:55:12;2.67;;;1.20;;
7843;SDS011;3967;48.702;9.326;2023-11-21T11:57:54;0.70;;;0.70;;
7843;SDS011;3967;48.702;9.326;2023-11-21T12:02:53;0.67;;;0.67;;
7843;SDS011;3967;48.702;9.326;2023-11-21T12:05:21;0.80;;;0.80;;
7843;SDS011;3967;48.702;9.326;2023-11-21T12:07:53;1.07;;;0.67;;
7843;SDS011;3967;48.702;9.326;2023-11-21T12:10:22;0.87;;;0.87;;
7843;SDS011;3967;48.702;9.326;2023-11-21T12:13:06;1.97;;;1.20;;
7843;SDS011;3967;48.702;9.326;2023-11-21T12:15:34;2.23;;;0.90;;
7843;SDS011;3967;48.702;9.326;2023-11-21T12:18:03;1.27;;;1.17;;
7843;SDS011;3967;48.702;9.326;2023-11-21T12:20:33;2.07;;;1.10;;
7843;SDS011;3967;48.702;9.326;2023-11-21T12:23:06;0.87;;;0.70;;
7843;SDS011;3967;48.702;9.326;2023-11-21T12:25:35;1.30;;;1.00;;
7843;SDS011;3967;48.702;9.326;2023-11-21T12:28:03;1.50;;;1.30;;
7843;SDS011;3967;48.702;9.326;2023-11-21T12:30:30;0.90;;;0.90;;
7843;SDS011;3967;48.702;9.326;2023-11-21T12:33:01;1.40;;;1.30;;
7843;SDS011;3967;48.702;9.326;2023-11-21T12:35:31;1.50;;;1.40;;
7843;SDS011;3967;48.702;9.326;2023-11-21T12:38:03;2.67;;;1.47;;
7843;SDS011;3967;48.702;9.326;2023-11-21T12:40:31;1.47;;;1.37;;
7843;SDS011;3967;48.702;9.326;2023-11-21T12:42:59;1.50;;;1.40;;
7843;SDS011;3967;48.702;9.326;2023-11-21T12:45:28;1.50;;;1.40;;
7843;SDS011;3967;48.702;9.326;2023-11-21T12:48:04;1.93;;;1.50;;
7843;SDS011;3967;48.702;9.326;2023-11-21T12:50:38;3.57;;;1.40;;
7843;SDS011;3967;48.702;9.326;2023-11-21T12:53:12;2.40;;;1.57;;
7843;SDS011;3967;48.702;9.326;2023-11-21T12:55:39;2.60;;;1.60;;
7843;SDS011;3967;48.702;9.326;2023-11-21T12:58:09;2.40;;;2.13;;
7843;SDS011;3967;48.702;9.326;2023-11-21T13:03:13;4.13;;;2.33;;
7843;SDS011;3967;48.702;9.326;2023-11-21T13:05:45;1.73;;;1.40;;
7843;SDS011;3967;48.702;9.326;2023-11-21T13:08:17;2.00;;;1.77;;
7843;SDS011;3967;48.702;9.326;2023-11-21T13:10:51;1.83;;;1.73;;
7843;SDS011;3967;48.702;9.326;2023-11-21T13:13:20;2.10;;;1.90;;
7843;SDS011;3967;48.702;9.326;2023-11-21T13:15:59;2.53;;;1.87;;
7843;SDS011;3967;48.702;9.326;2023-11-21T13:18:28;2.17;;;1.97;;
7843;SDS011;3967;48.702;9.326;2023-11-21T13:20:56;4.40;;;2.20;;
7843;SDS011;3967;48.702;9.326;2023-11-21T13:23:25;2.27;;;2.07;;
7843;SDS011;3967;48.702;9.326;2023-11-21T13:25:54;2.30;;;2.10;;
7843;SDS011;3967;48.702;9.326;2023-11-21T13:28:33;2.20;;;1.67;;
7843;SDS011;3967;48.702;9.326;2023-11-21T13:31:02;2.27;;;1.07;;
7843;SDS011;3967;48.702;9.326;2023-11-21T13:33:37;2.00;;;1.00;;
7843;SDS011;3967;48.702;9.326;2023-11-21T13:36:06;3.87;;;1.20;;
7843;SDS011;3967;48.702;9.326;2023-11-21T13:38:37;0.80;;;0.80;;
7843;SDS011;3967;48.702;9.326;2023-11-21T13:41:08;0.80;;;0.80;;
7843;SDS011;3967;48.702;9.326;2023-11-21T13:43:36;0.70;;;0.70;;
7843;SDS011;3967;48.702;9.326;2023-11-21T13:46:04;1.03;;;0.80;;
7843;SDS011;3967;48.702;9.326;2023-11-21T13:48:39;0.80;;;0.80;;
7843;SDS011;3967;48.702;9.326;2023-11-21T13:51:17;0.80;;;0.80;;
7843;SDS011;3967;48.702;9.326;2023-11-21T13:53:44;0.67;;;0.67;;
7843;SDS011;3967;48.702;9.326;2023-11-21T13:56:14;1.30;;;1.20;;
7843;SDS011;3967;48.702;9.326;2023-11-21T13:58:45;1.37;;;1.10;;
7843;SDS011;3967;48.702;9.326;2023-11-21T14:01:20;2.93;;;1.17;;
7843;SDS011;3967;48.702;9.326;2023-11-21T14:03:58;1.03;;;1.00;;
7843;SDS011;3967;48.702;9.326;2023-11-21T14:06:39;0.93;;;0.93;;
7843;SDS011;3967;48.702;9.326;2023-11-21T14:09:18;1.10;;;1.10;;
7843;SDS011;3967;48.702;9.326;2023-11-21T14:11:53;1.50;;;1.40;;
7843;SDS011;3967;48.702;9.326;2023-11-21T14:14:26;1.47;;;1.07;;
7843;SDS011;3967;48.702;9.326;2023-11-21T14:16:56;1.20;;;1.10;;
7843;SDS011;3967;48.702;9.326;2023-11-21T14:19:25;1.60;;;1.50;;
7843;SDS011;3967;48.702;9.326;2023-11-21T14:21:59;1.53;;;1.43;;
7843;SDS011;3967;48.702;9.326;2023-11-21T14:24:26;1.37;;;1.27;;
7843;SDS011;3967;48.702;9.326;2023-11-21T14:26:55;1.30;;;1.20;;
7843;SDS011;3967;48.702;9.326;2023-11-21T14:29:22;1.53;;;1.43;;
7843;SDS011;3967;48.702;9.326;2023-11-21T14:31:50;1.33;;;1.23;;
7843;SDS011;3967;48.702;9.326;2023-11-21T14:34:19;1.43;;;1.33;;
7843;SDS011;3967;48.702;9.326;2023-11-21T14:36:49;1.30;;;1.20;;
7843;SDS011;3967;48.702;9.326;2023-11-21T14:39:16;1.83;;;1.30;;
7843;SDS011;3967;48.702;9.326;2023-11-21T14:41:51;1.70;;;1.60;;
7843;SDS011;3967;48.702;9.326;2023-11-21T14:44:19;1.33;;;1.23;;
7843;SDS011;3967;48.702;9.326;2023-11-21T14:46:47;1.83;;;1.50;;
7843;SDS011;3967;48.702;9.326;2023-11-21T14:49:17;1.23;;;1.13;;
7843;SDS011;3967;48.702;9.326;2023-11-21T14:51:47;0.70;;;0.70;;
7843;SDS011;3967;48.702;9.326;2023-11-21T14:54:29;0.80;;;0.80;;
7843;SDS011;3967;48.702;9.326;2023-11-21T14:57:05;0.70;;;0.70;;
7843;SDS011;3967;48.702;9.326;2023-11-21T14:59:45;0.70;;;0.70;;
7843;SDS011;3967;48.702;9.326;2023-11-21T15:02:23;2.47;;;0.90;;
7843;SDS011;3967;48.702;9.326;2023-11-21T15:05:10;1.10;;;0.90;;
7843;SDS011;3967;48.702;9.326;2023-11-21T15:07:43;1.00;;;0.90;;
7843;SDS011;3967;48.702;9.326;2023-11-21T15:10:11;1.07;;;1.07;;
7843;SDS011;3967;48.702;9.326;2023-11-21T15:12:42;0.90;;;0.90;;
7843;SDS011;3967;48.702;9.326;2023-11-21T15:15:10;1.30;;;1.20;;
7843;SDS011;3967;48.702;9.326;2023-11-21T15:17:38;1.57;;;1.10;;
7843;SDS011;3967;48.702;9.326;2023-11-21T15:20:09;1.43;;;1.00;;
7843;SDS011;3967;48.702;9.326;2023-11-21T15:22:39;1.00;;;1.00;;
7843;SDS011;3967;48.702;9.326;2023-11-21T15:25:06;1.40;;;1.30;;
7843;SDS011;3967;48.702;9.326;2023-11-21T15:27:36;1.40;;;1.30;;
7843;SDS011;3967;48.702;9.326;2023-11-21T15:30:03;1.13;;;1.10;;
7843;SDS011;3967;48.702;9.326;2023-11-21T15:32:31;1.40;;;1.30;;
7843;SDS011;3967;48.702;9.326;2023-11-21T15:34:58;3.03;;;1.20;;
7843;SDS011;3967;48.702;9.326;2023-11-21T15:37:25;1.50;;;1.40;;
7843;SDS011;3967;48.702;9.326;2023-11-21T15:39:54;1.83;;;1.40;;
7843;SDS011;3967;48.702;9.326;2023-11-21T15:42:20;1.30;;;1.20;;
7843;SDS011;3967;48.702;9.326;2023-11-21T15:44:47;1.53;;;1.43;;